Tiempo atmosférico en la estación meteorológica de Briviesca, Burgos (730 m.)



Fecha
DESCASC
Temp. máxima en grados centígrados (hora)
DESCASC
Temp. mínima en grados centígrados (hora)
DESCASC
Temp. media en grados centígrados
DESCASC
Racha de viento máxima en m/sg (hora)
DESCASC
Velocidad máxima media en intervalos de 10 minutos(hora)
DESCASC
Precipitaciones diarias en mm
DESCASC
Precipitaciones de 00:00 a 06:00 en mm
DESCASC
Precipitaciones de 06:00 a 12:00 en mm
DESCASC
Precipitaciones de 12:00 a 18:00 en mm
DESCASC
Precipitaciones de 18:00 a 24:00 en mm
DESCASC
22-04-2019 16.9 (19:00) 7.7 (07:20) 12.3 11.67 (17:40) 6.11 (15:50) 0 0 0 0 0
21-04-2019 12.7 (15:30) 6.2 (06:50) 9.4 8.33 (00:40) 5 (00:40) 0 0 0 0 0
20-04-2019 18.8 (16:30) 7.9 (07:10) 13.3 9.72 (16:00) 6.94 (15:10) 0 0 0 0 0
19-04-2019 15 (15:00) 8.1 (07:20) 11.6 17.22 (02:40) 11.11 (02:40) 1 0.6 0.4 0 0
18-04-2019 12.3 (00:00) 8.6 (00:00) 10.5 15.56 (03:30) 10 (02:50) 22.6 1.8 10 4.4 6.4
17-04-2019 16.1 (18:00) 6.7 (00:00) 11.4 14.44 (04:20) 9.72 (20:10) 1.8 0 0 0 1.8
16-04-2019 16.8 (17:10) 7.7 (00:00) 12.2 8.89 (22:20) 6.11 (22:00) 2.6 2.6 0 0 0
15-04-2019 19.1 (14:50) 7.6 (00:00) 13.4 16.11 (16:20) 9.72 (16:20) 6.4 0 0 1.8 4.6
14-04-2019 20.6 (17:50) 7.8 (00:00) 14.2 7.78 (13:00) 5 (21:20) 0 0 0 0 0
13-04-2019 19.9 (17:20) -2.1 (-00:0) 8.9 9.72 (16:50) 4.72 (18:40) 0 0 0 0 0
12-04-2019 14.2 (17:30) 0.3 (00:00) 7.2 7.22 (21:30) 4.44 (21:20) 0 0 0 0 0
11-04-2019 9.9 (15:20) 2.6 (00:00) 6.2 7.5 (16:50) 5.28 (18:30) 0.4 0 0 0 0.4
10-04-2019 11.4 (14:50) 3 (00:00) 7.2 12.22 (16:30) 8.33 (16:40) 0.2 0 0 0.2 0
09-04-2019 11.1 (14:10) 4.4 (00:00) 7.8 11.67 (15:10) 8.06 (15:10) 5.2 0 0 0 5.2
08-04-2019 14.2 (17:10) 5.9 (00:00) 10 12.5 (15:00) 8.89 (15:00) 0.2 0 0.2 0 0
07-04-2019 11.8 (17:30) 2.7 (00:00) 7.3 11.11 (20:40) 7.78 (20:40) 0.2 0 0 0.2 0
06-04-2019 10.5 (18:00) 2.5 (00:00) 6.5 15.28 (16:10) 9.17 (16:10) 1.8 0 0 0.6 1.2
05-04-2019 7.9 (13:10) 2.6 (00:00) 5.3 10.83 (11:40) 6.94 (11:50) 0.2 0.2 0 0 0
04-04-2019 11.3 (16:40) -2 (-00:0) 4.7 15.28 (16:20) 8.89 (16:00) 0 0 0 0 0
03-04-2019 8.1 (00:00) 1.3 (00:00) 4.7 13.33 (17:30) 7.22 (18:30) 4.4 0 0 4.4 0
02-04-2019 16 (17:30) 2.7 (00:00) 9.4 8.33 (18:50) 6.11 (18:50) 0 0 0 0 0
01-04-2019 13.7 (18:20) 5.9 (00:00) 9.8 13.89 (01:00) 9.44 (01:00) 0 0 0 0 0
31-03-2019 16.2 (16:00) -0.7 (-00:0) 7.8 11.67 (15:40) 8.61 (15:40) 0 0 0 0 0
30-03-2019 17.1 (16:20) 0.5 (00:00) 8.8 10 (16:20) 5.83 (17:50) 0 0 0 0 0
29-03-2019 17.3 (16:40) -1.1 (-00:0) 8.1 9.17 (16:30) 5.83 (19:40) 0 0 0 0 0
28-03-2019 14.9 (15:40) -1 (-00:0) 6.9 9.17 (15:40) 6.11 (15:10) 0 0 0 0 0
27-03-2019 15.8 (15:00) -1.1 (-00:0) 7.4 10.83 (16:50) 7.5 (16:50) 0 0 0 0 0
26-03-2019 14.4 (15:20) 1.4 (00:00) 7.9 13.33 (16:30) 8.89 (17:00) 0 0 0 0 0
25-03-2019 12.4 (15:50) 0 (00:00) 6.2 10.56 (14:00) 6.39 (16:40) 0 0 0 0 0

Gráficas

Temp. máximas Temp. mínimas Temp. medias Precipitaciones Rachas de viento máximas Velocidades máximas media en intervalos de 10 minutos

Datos horarios

Fecha y hora oficial Temperatura (ºC) Velocidad del viento (km/h) Dirección del viento Racha (km/h) Dirección de racha Precipitación (mm) Presión (hPa) Tendencia (hPa) Humedad (%)
2019-04-23 23:00:00 5.5 19 Sudoeste 31 Sudoeste 0 -- -- 88
2019-04-23 22:00:00 5.4 17 Sudoeste 27 Sudoeste 0 -- -- 89
2019-04-23 21:00:00 6.1 21 Sudoeste 57 Sudoeste 0.8 -- -- 87
2019-04-23 20:00:00 10.7 12 Sudoeste 23 Sudoeste 0 -- -- 63
2019-04-23 19:00:00 10.9 19 Sudoeste 31 Sudoeste 0 -- -- 62
2019-04-23 18:00:00 9.6 21 Sudoeste 32 Sudoeste 0 -- -- 69
2019-04-23 17:00:00 9.5 19 Sudoeste 32 Sudoeste 0 -- -- 74
2019-04-23 16:00:00 8.8 17 Sudoeste 32 Sudoeste 0 -- -- 78
2019-04-23 15:00:00 9.1 12 Oeste 22 Sudoeste 0 -- -- 82
2019-04-23 14:00:00 7.6 14 Sudoeste 40 Sudoeste 0.4 -- -- 87
2019-04-23 13:00:00 9.4 21 Sudoeste 34 Sudoeste 0 -- -- 78
2019-04-23 12:00:00 9.1 10 Sudoeste 23 Sudoeste 0 -- -- 82
2019-04-23 11:00:00 9.5 10 Sudoeste 22 Sudoeste 0 -- -- 86
2019-04-23 10:00:00 9.8 12 Oeste 31 Sudeste 0 -- -- 86
2019-04-23 09:00:00 8.9 9 Sudeste 22 Este 0 -- -- 95
2019-04-23 08:00:00 8.7 9 Sudeste 22 Este 0 -- -- 95
2019-04-23 07:00:00 9.4 4 Sudeste 13 Sudoeste 0 -- -- 92
2019-04-23 06:00:00 9.5 7 Sudoeste 14 Sudoeste 0 -- -- 92
2019-04-23 05:00:00 9.1 0 Calma 19 Sudeste 0.4 -- -- 89
2019-04-23 04:00:00 9.2 13 Sudeste 19 Sudeste 0 -- -- 87
2019-04-23 03:00:00 8.8 8 Este 15 Este 0 -- -- 86
2019-04-23 02:00:00 9.5 3 Este 14 Sudeste 0 -- -- 81
2019-04-23 01:00:00 10.3 10 Sudeste 17 Sudeste 0 -- -- 74
2019-04-23 00:00:00 9.6 7 Sur 14 Sudeste 0 -- -- 76
2019-04-22 23:00:00 10.4 11 Sudeste 17 Sudeste 0 -- -- 72
2019-04-22 22:00:00 11.7 8 Sur 12 Sur 0 -- -- 70
2019-04-22 21:00:00 13.7 5 Sur 17 Sudoeste 0 -- -- 62
2019-04-22 20:00:00 14.7 12 Sudoeste 32 Sudoeste 0 -- -- 56
2019-04-22 19:00:00 16.9 18 Sudoeste 34 Sudoeste 0 -- -- 47
2019-04-22 18:00:00 16.1 18 Sudoeste 42 Sudoeste 0 -- -- 54
2019-04-22 17:00:00 15.2 9 Sudoeste 31 Sudoeste 0 -- -- 60
2019-04-22 16:00:00 16.4 22 Sudoeste 36 Sudoeste 0 -- -- 55
2019-04-22 15:00:00 16.2 21 Oeste 35 Sudoeste 0 -- -- 56
2019-04-22 14:00:00 14.9 19 Sudoeste 37 Sudoeste 0 -- -- 60
2019-04-22 13:00:00 14.1 17 Sudoeste 28 Oeste 0 -- -- 60
2019-04-22 12:00:00 12.7 6 Noroeste 10 Oeste 0 -- -- 81
2019-04-22 11:00:00 11.1 4 Noroeste 9 Noroeste 0 -- -- 84
2019-04-22 10:00:00 9.6 0 Calma 7 Sudeste 0 -- -- 87
2019-04-22 09:00:00 8.5 0 Calma 4 Sudoeste 0 -- -- 95
2019-04-22 08:00:00 7.8 0 Calma 2 Sudeste 0 -- -- 97
2019-04-22 07:00:00 7.8 0 Calma 2 Noroeste 0 -- -- 97
2019-04-22 06:00:00 8.1 0 Calma 2 Oeste 0 -- -- 96
2019-04-22 05:00:00 8.3 0 Calma 5 Sudeste 0 -- -- 95
2019-04-22 04:00:00 8.4 0 Calma 3 Sudeste 0 -- -- 94
2019-04-22 03:00:00 8.7 3 Sur 9 Sudeste 0 -- -- 92
2019-04-22 02:00:00 8.9 6 Sudeste 10 Sudeste 0 -- -- 91
2019-04-22 01:00:00 9.1 2 Sur 12 Este 0 -- -- 90
2019-04-22 00:00:00 9.2 4 Este 6 Este 0 -- -- 89
2019-04-21 23:00:00 9.6 2 Nordeste 12 Este 0 -- -- 91
2019-04-21 22:00:00 10 9 Este 14 Nordeste 0 -- -- 89
2019-04-21 21:00:00 10.6 7 Este 19 Este 0 -- -- 79
2019-04-21 20:00:00 11.7 10 Este 18 Este 0 -- -- 75
2019-04-21 19:00:00 11.4 11 Este 18 Este 0 -- -- 75
2019-04-21 18:00:00 12.2 13 Este 20 Este 0 -- -- 72
2019-04-21 17:00:00 11.7 15 Este 23 Este 0 -- -- 74
2019-04-21 16:00:00 12.3 14 Nordeste 21 Nordeste 0 -- -- 70
2019-04-21 15:00:00 12.2 9 Este 23 Este 0 -- -- 69
2019-04-21 14:00:00 11.4 14 Este 22 Este 0 -- -- 75
2019-04-21 13:00:00 10.9 9 Nordeste 17 Nordeste 0 -- -- 76
2019-04-21 12:00:00 9.9 2 Norte 6 Noroeste 0 -- -- 86
2019-04-21 11:00:00 8.2 3 Norte 6 Norte 0 -- -- 93
2019-04-21 10:00:00 7.6 2 Norte 17 Este 0 -- -- 93
2019-04-21 09:00:00 7 10 Este 21 Este 0 -- -- 94
2019-04-21 08:00:00 6.3 13 Sudeste 20 Este 0 -- -- 96
2019-04-21 07:00:00 6.2 13 Sudeste 22 Sudeste 0 -- -- 96
2019-04-21 06:00:00 6.6 13 Sudeste 19 Sudeste 0 -- -- 95
2019-04-21 05:00:00 6.8 6 Este 19 Este 0 -- -- 94
2019-04-21 04:00:00 7.4 15 Este 21 Este 0 -- -- 93
2019-04-21 03:00:00 7.9 8 Este 14 Este 0 -- -- 93
2019-04-21 02:00:00 9.3 10 Este 18 Este 0 -- -- 90
2019-04-21 01:00:00 9.9 12 Este 30 Este 0 -- -- 88
2019-04-21 00:00:00 10.5 5 Este 11 Este 0 -- -- 78
2019-04-20 23:00:00 9.9 0 Calma 3 Norte 0 -- -- 88
2019-04-20 22:00:00 10.2 3 Este 6 Nordeste 0 -- -- 84
2019-04-20 21:00:00 12.6 6 Nordeste 25 Norte 0 -- -- 76
2019-04-20 20:00:00 15.5 18 Nordeste 29 Norte 0 -- -- 58
2019-04-20 19:00:00 16.6 15 Nordeste 26 Este 0 -- -- 56
2019-04-20 18:00:00 18.4 18 Este 30 Este 0 -- -- 53
2019-04-20 17:00:00 18.7 21 Este 34 Este 0 -- -- 48
2019-04-20 16:00:00 18.5 23 Este 35 Este 0 -- -- 49
2019-04-20 15:00:00 17.8 23 Nordeste 33 Nordeste 0 -- -- 55
2019-04-20 14:00:00 17.2 21 Este 34 Este 0 -- -- 60
2019-04-20 13:00:00 16.7 18 Nordeste 28 Nordeste 0 -- -- 58
2019-04-20 12:00:00 15.3 7 Nordeste 18 Nordeste 0 -- -- 69
2019-04-20 11:00:00 14.7 13 Nordeste 21 Este 0 -- -- 76
2019-04-20 10:00:00 12.3 0 Calma 9 Sudeste 0 -- -- 78
2019-04-20 09:00:00 9.9 0 Calma 4 Sudoeste 0 -- -- 84
2019-04-20 08:00:00 8.5 3 Noroeste 17 Este 0 -- -- 85
2019-04-20 07:00:00 8 10 Este 17 Este 0 -- -- 89
2019-04-20 06:00:00 8.3 12 Este 17 Este 0 -- -- 89
2019-04-20 05:00:00 8.4 9 Este 15 Este 0 -- -- 88
2019-04-20 04:00:00 9.4 13 Este 19 Este 0 -- -- 87
2019-04-20 03:00:00 9.7 13 Este 17 Este 0 -- -- 87
2019-04-20 02:00:00 10.2 13 Este 16 Este 0 -- -- 85
2019-04-20 01:00:00 10.2 11 Este 13 Este 0 -- -- 87
2019-04-20 00:00:00 10 5 Este 11 Nordeste 0 -- -- 90
2019-04-19 23:00:00 10.4 4 Este 13 Este 0 -- -- 85
2019-04-19 22:00:00 11.9 9 Este 16 Este 0 -- -- 78
2019-04-19 21:00:00 12.6 9 Este 32 Este 0 -- -- 76
2019-04-19 20:00:00 13.9 24 Este 41 Este 0 -- -- 67
2019-04-19 19:00:00 14.3 26 Este 40 Este 0 -- -- 69
2019-04-19 18:00:00 14.4 28 Este 47 Este 0 -- -- 69
2019-04-19 17:00:00 14.1 34 Este 53 Este 0 -- -- 71
2019-04-19 16:00:00 14.3 30 Este 51 Este 0 -- -- 75
2019-04-19 15:00:00 15 31 Este 54 Este 0 -- -- 72
2019-04-19 14:00:00 13.1 22 Este 35 Este 0 -- -- 82
2019-04-19 13:00:00 11.4 19 Este 31 Este 0 -- -- 84
2019-04-19 12:00:00 9.2 19 Este 30 Este 0 -- -- 93
2019-04-19 11:00:00 8.7 22 Este 40 Este 0.2 -- -- 97
2019-04-19 10:00:00 8.5 29 Este 45 Este 0 -- -- 97
2019-04-19 09:00:00 8.4 28 Este 46 Este 0 -- -- 98
2019-04-19 08:00:00 8.2 30 Este 48 Este 0 -- -- 98
2019-04-19 07:00:00 8.2 29 Este 42 Este 0.2 -- -- 98
2019-04-19 06:00:00 8.5 26 Este 41 Este 0 -- -- 97
2019-04-19 05:00:00 8.7 25 Este 47 Este 0 -- -- 96
2019-04-19 04:00:00 8.9 26 Este 48 Este 0 -- -- 96
2019-04-19 03:00:00 9 33 Este 62 Este 0.2 -- -- 94
2019-04-19 02:00:00 9.3 24 Este 44 Este 0 -- -- 95
2019-04-19 01:00:00 9.4 19 Nordeste 31 Nordeste 0.4 -- -- 99
2019-04-19 00:00:00 8.7 2 Nordeste 8 Nordeste 1.4 -- -- 100
2019-04-18 23:00:00 8.7 2 Oeste 6 Norte 0.8 -- -- 100
2019-04-18 22:00:00 8.7 6 Norte 11 Este 0.6 -- -- 100
2019-04-18 21:00:00 9.1 12 Este 27 Este 2.2 -- -- 96
2019-04-18 20:00:00 9.8 22 Este 32 Este 0.8 -- -- 93
2019-04-18 19:00:00 10.1 0 Calma 5 Oeste 0.6 -- -- 98
2019-04-18 18:00:00 9.8 0 Calma 4 Nordeste 1 -- -- 98
2019-04-18 17:00:00 9.5 3 Norte 15 Norte 0.4 -- -- 98
2019-04-18 16:00:00 9.5 6 Norte 10 Sudoeste 1 -- -- 97
2019-04-18 15:00:00 9.6 3 Norte 13 Este 0 -- -- 99
2019-04-18 14:00:00 9.6 0 Calma 9 Este 1.4 -- -- 94
2019-04-18 13:00:00 9.4 8 Este 16 Este 0.6 -- -- 95
2019-04-18 12:00:00 9.3 10 Sudeste 19 Sudeste 1.6 -- -- 95
2019-04-18 11:00:00 8.9 12 Sudeste 26 Este 1.4 -- -- 98
2019-04-18 10:00:00 8.9 16 Este 26 Este 1.6 -- -- 99
2019-04-18 09:00:00 8.8 16 Sudeste 26 Este 1.6 -- -- 98
2019-04-18 08:00:00 8.8 19 Sudeste 26 Sudeste 1.8 -- -- 98
2019-04-18 07:00:00 8.8 17 Sudeste 24 Este 2 -- -- 97
2019-04-18 06:00:00 9.2 4 Sudeste 40 Este 0.4 -- -- 96
2019-04-18 05:00:00 9.1 28 Este 46 Este 0.8 -- -- 96
2019-04-18 04:00:00 9.9 29 Este 56 Este 0.4 -- -- 93
2019-04-18 03:00:00 10.5 33 Este 54 Este 0 -- -- 90
2019-04-18 02:00:00 11.5 27 Este 37 Este 0 -- -- 85
2019-04-18 01:00:00 11.9 2 Nordeste 17 Este 0.2 -- -- 91
2019-04-18 00:00:00 12.3 5 Sur 11 Sudoeste 0.4 -- -- 92
2019-04-17 23:00:00 12.4 5 Sur 21 Este 0.4 -- -- 89
2019-04-17 22:00:00 13.4 9 Sudeste 36 Sudeste 1 -- -- 83
2019-04-17 21:00:00 14.9 29 Este 50 Este 0 -- -- 69
2019-04-17 20:00:00 15.3 28 Este 49 Este 0 -- -- 68
2019-04-17 19:00:00 15.8 25 Este 46 Sudeste 0 -- -- 68
2019-04-17 18:00:00 16.1 24 Este 46 Este 0 -- -- 68
2019-04-17 17:00:00 15.7 33 Este 47 Sudeste 0 -- -- 68
2019-04-17 16:00:00 16 30 Este 42 Este 0 -- -- 69
2019-04-17 15:00:00 15.3 23 Este 36 Sudeste 0 -- -- 73
2019-04-17 14:00:00 13.8 23 Este 35 Este 0 -- -- 77
2019-04-17 13:00:00 11.4 25 Este 36 Sudeste 0 -- -- 86
2019-04-17 12:00:00 9.2 21 Este 35 Este 0 -- -- 94
2019-04-17 11:00:00 8.2 26 Sudeste 41 Sudeste 0 -- -- 96
2019-04-17 10:00:00 7.6 8 Sur 46 Este 0 -- -- 95
2019-04-17 09:00:00 7.1 24 Sudeste 44 Este 0 -- -- 95
2019-04-17 08:00:00 6.7 28 Sudeste 45 Este 0 -- -- 94
2019-04-17 07:00:00 6.8 16 Sudeste 46 Sudeste 0 -- -- 91
2019-04-17 06:00:00 7.5 28 Sudeste 47 Sudeste 0 -- -- 89
2019-04-17 05:00:00 8.3 26 Sudeste 52 Este 0 -- -- 88
2019-04-17 04:00:00 9.2 30 Sudeste 45 Sudeste 0 -- -- 86
2019-04-17 03:00:00 9.8 24 Este 34 Sudeste 0 -- -- 83
2019-04-17 02:00:00 10.4 21 Sudeste 33 Sudeste 0 -- -- 79
2019-04-17 01:00:00 10.8 19 Sudeste 29 Sudeste 0 -- -- 78
2019-04-17 00:00:00 11.3 12 Sudeste 29 Este 0 -- -- 75
2019-04-16 23:00:00 12.1 22 Este 32 Este 0 -- -- 72
2019-04-16 22:00:00 12.8 22 Este 31 Este 0 -- -- 72
2019-04-16 21:00:00 13.5 20 Este 30 Este 0 -- -- 73
2019-04-16 20:00:00 15.3 17 Este 28 Este 0 -- -- 67
2019-04-16 19:00:00 16.3 21 Este 30 Este 0 -- -- 61
2019-04-16 18:00:00 16.7 20 Sudeste 27 Este 0 -- -- 60
2019-04-16 17:00:00 16.6 19 Este 27 Este 0 -- -- 63
2019-04-16 16:00:00 16.4 11 Sudeste 23 Sudeste 0 -- -- 64
2019-04-16 15:00:00 15.1 10 Este 22 Sudeste 0 -- -- 65
2019-04-16 14:00:00 15.1 9 Sudeste 20 Sudoeste 0 -- -- 63
2019-04-16 13:00:00 13.8 7 Sudoeste 17 Sudeste 0 -- -- 65
2019-04-16 12:00:00 12.4 5 Sur 15 Sudeste 0 -- -- 74
2019-04-16 11:00:00 11.5 6 Sudeste 14 Este 0 -- -- 80
2019-04-16 10:00:00 9.6 7 Sudeste 12 Sudeste 0 -- -- 88
2019-04-16 09:00:00 8.7 3 Noroeste 13 Sudeste 0 -- -- 93
2019-04-16 08:00:00 8.1 6 Sudeste 12 Sudeste 0 -- -- 96
2019-04-16 07:00:00 8.1 9 Sudeste 20 Sudeste 0 -- -- 97
2019-04-16 06:00:00 7.8 6 Sudeste 10 Sudeste 0 -- -- 97
2019-04-16 05:00:00 7.9 0 Calma 8 Noroeste 0 -- -- 94
2019-04-16 04:00:00 8.1 5 Noroeste 9 Noroeste 0 -- -- 95
2019-04-16 03:00:00 8.4 0 Calma 8 Norte 0.6 -- -- 97
2019-04-16 02:00:00 9 6 Nordeste 12 Este 1.2 -- -- 97
2019-04-16 01:00:00 9.2 5 Este 13 Este 0.8 -- -- 97
2019-04-16 00:00:00 9.5 8 Nordeste 16 Este 1 -- -- 97
2019-04-15 23:00:00 9.7 12 Este 16 Este 0 -- -- 97
2019-04-15 22:00:00 10.5 9 Este 17 Este 3.4 -- -- 95
2019-04-15 21:00:00 11.4 9 Este 18 Nordeste 0.2 -- -- 90
2019-04-15 20:00:00 12.8 12 Nordeste 27 Nordeste 0 -- -- 89
2019-04-15 19:00:00 14.3 8 Sur 21 Sudoeste 0 -- -- 87
2019-04-15 18:00:00 14.8 15 Sudoeste 36 Sudoeste 0.4 -- -- 84
2019-04-15 17:00:00 13.7 22 Sudoeste 58 Oeste 1.4 -- -- 77
2019-04-15 16:00:00 18.4 17 Sudeste 39 Sudeste 0 -- -- 64
2019-04-15 15:00:00 19.1 23 Este 33 Este 0 -- -- 62
2019-04-15 14:00:00 18.1 21 Este 31 Este 0 -- -- 68
2019-04-15 13:00:00 15.9 21 Sudeste 30 Sudeste 0 -- -- 74
2019-04-15 12:00:00 14.6 13 Sudeste 22 Este 0 -- -- 79
2019-04-15 11:00:00 12.7 7 Sudeste 20 Este 0 -- -- 86
2019-04-15 10:00:00 12.5 10 Este 17 Este 0 -- -- 87
2019-04-15 09:00:00 9 0 Calma 7 Sudeste 0 -- -- 92
2019-04-15 08:00:00 8.2 3 Sudoeste 6 Oeste 0 -- -- 94
2019-04-15 07:00:00 7.6 0 Calma 5 Oeste 0 -- -- 93
2019-04-15 06:00:00 7.9 0 Calma 8 Sudoeste 0 -- -- 92
2019-04-15 05:00:00 8.4 4 Sudoeste 9 Sur 0 -- -- 90
2019-04-15 04:00:00 8.9 4 Sur 9 Sur 0 -- -- 88
2019-04-15 03:00:00 9.1 6 Sur 10 Sudoeste 0 -- -- 89
2019-04-15 02:00:00 9.9 5 Sur 12 Sur 0 -- -- 86
2019-04-15 01:00:00 11.3 0 Calma 17 Sudeste 0 -- -- 82
2019-04-15 00:00:00 12.2 6 Sur 15 Sur 0 -- -- 81
2019-04-14 23:00:00 12.9 6 Sur 13 Sur 0 -- -- 79
2019-04-14 22:00:00 14.5 6 Sudeste 24 Sudeste 0 -- -- 72
2019-04-14 21:00:00 15.9 16 Sudeste 21 Este 0 -- -- 68
2019-04-14 20:00:00 18.6 10 Este 15 Este 0 -- -- 58
2019-04-14 19:00:00 19.9 6 Este 12 Nordeste 0 -- -- 50
2019-04-14 18:00:00 20.3 4 Norte 15 Oeste 0 -- -- 51
2019-04-14 17:00:00 19.8 10 Oeste 17 Oeste 0 -- -- 52
2019-04-14 16:00:00 19.3 8 Norte 22 Oeste 0 -- -- 53
2019-04-14 15:00:00 19.9 7 Oeste 18 Oeste 0 -- -- 50
2019-04-14 14:00:00 18.7 6 Oeste 21 Oeste 0 -- -- 54
2019-04-14 13:00:00 18.5 12 Sudoeste 28 Oeste 0 -- -- 54
2019-04-14 12:00:00 16.7 4 Noroeste 14 Noroeste 0 -- -- 60
2019-04-14 11:00:00 14.2 3 Norte 10 Norte 0 -- -- 63
2019-04-14 10:00:00 12.4 6 Norte 9 Norte 0 -- -- 68
2019-04-14 09:00:00 9.8 3 Noroeste 18 Sur 0 -- -- 76
2019-04-14 08:00:00 10 12 Sudoeste 20 Sudoeste 0 -- -- 75
2019-04-14 07:00:00 9.3 5 Sudeste 8 Sur 0 -- -- 74
2019-04-14 06:00:00 9.7 6 Sur 11 Sur 0 -- -- 71
2019-04-14 05:00:00 8.3 0 Calma 10 Sur 0 -- -- 73
2019-04-14 04:00:00 10.1 3 Sudoeste 15 Sur 0 -- -- 66
2019-04-14 03:00:00 10 8 Sur 12 Sur 0 -- -- 64
2019-04-14 02:00:00 8.3 0 Calma 8 Sur 0 -- -- 73
2019-04-14 01:00:00 10.5 2 Sur 9 Sur 0 -- -- 63
2019-04-14 00:00:00 11.5 0 Calma 2 Sudeste 0 -- -- 61
2019-04-13 23:00:00 12.3 0 Calma 15 Sur 0 -- -- 53
2019-04-13 22:00:00 13.5 8 Sur 13 Sudoeste 0 -- -- 49
2019-04-13 21:00:00 14.4 10 Sudoeste 23 Sudoeste 0 -- -- 47
2019-04-13 20:00:00 17.8 14 Sudoeste 25 Oeste 0 -- -- 35
2019-04-13 19:00:00 19.4 14 Oeste 28 Oeste 0 -- -- 31
2019-04-13 18:00:00 19.8 12 Oeste 27 Oeste 0 -- -- 28
2019-04-13 17:00:00 19.7 15 Oeste 35 Sudoeste 0 -- -- 25
2019-04-13 16:00:00 19.7 17 Sudoeste 25 Oeste 0 -- -- 25
2019-04-13 15:00:00 18.7 6 Sur 18 Oeste 0 -- -- 28
2019-04-13 14:00:00 17.2 8 Norte 17 Norte 0 -- -- 35
2019-04-13 13:00:00 15.7 5 Nordeste 10 Norte 0 -- -- 39
2019-04-13 12:00:00 12.5 5 Norte 9 Nordeste 0 -- -- 39
2019-04-13 11:00:00 8.3 0 Calma 6 Noroeste 0 -- -- 57
2019-04-13 10:00:00 4.4 5 Sudoeste 13 Sur 0 -- -- 66
2019-04-13 09:00:00 0.5 6 Sur 17 Sudeste 0 -- -- 76
2019-04-13 08:00:00 -1.8 6 Sur 12 Sudeste 0 -- -- 84
2019-04-13 07:00:00 -1.9 6 Sur 12 Sur 0 -- -- 86
2019-04-13 06:00:00 -1.3 6 Sudoeste 15 Sur 0 -- -- 89
2019-04-13 05:00:00 -0.4 5 Sur 15 Sur 0 -- -- 90
2019-04-13 04:00:00 -0.1 7 Sur 11 Sur 0 -- -- 91
2019-04-13 03:00:00 0.6 6 Sur 10 Sur 0 -- -- 93
2019-04-13 02:00:00 1.4 2 Sudoeste 8 Sudeste 0 -- -- 91
2019-04-13 01:00:00 2.7 4 Sur 12 Sudoeste 0 -- -- 88
2019-04-13 00:00:00 4.3 6 Sur 12 Sudoeste 0 -- -- 82
2019-04-12 23:00:00 5.2 3 Sudoeste 17 Sudeste 0 -- -- 78
2019-04-12 22:00:00 7.4 3 Sudoeste 26 Este 0 -- -- 69
2019-04-12 21:00:00 9.3 13 Este 21 Este 0 -- -- 60
2019-04-12 20:00:00 12.4 15 Este 20 Este 0 -- -- 51
2019-04-12 19:00:00 13.8 6 Este 20 Nordeste 0 -- -- 49
2019-04-12 18:00:00 14 9 Nordeste 20 Nordeste 0 -- -- 49
2019-04-12 17:00:00 13.6 9 Nordeste 17 Nordeste 0 -- -- 54
2019-04-12 16:00:00 13.4 6 Este 22 Este 0 -- -- 53
2019-04-12 15:00:00 12.3 5 Nordeste 22 Norte 0 -- -- 55
2019-04-12 14:00:00 11.3 8 Nordeste 18 Este 0 -- -- 59
2019-04-12 13:00:00 9.3 5 Nordeste 14 Este 0 -- -- 67
2019-04-12 12:00:00 9.2 7 Este 17 Este 0 -- -- 67
2019-04-12 11:00:00 7.6 2 Norte 6 Norte 0 -- -- 78
2019-04-12 10:00:00 4.7 4 Sur 11 Sudeste 0 -- -- 97
2019-04-12 09:00:00 1.4 5 Sur 13 Sur 0 -- -- 100
2019-04-12 08:00:00 0.6 5 Sur 10 Sur 0 -- -- 100
2019-04-12 07:00:00 0.9 3 Sudoeste 6 Sudoeste 0 -- -- 99
2019-04-12 06:00:00 1.3 2 Sudoeste 9 Sur 0 -- -- 100
2019-04-12 05:00:00 1.2 0 Calma 5 Sur 0 -- -- 97
2019-04-12 04:00:00 3.2 2 Este 7 Norte 0 -- -- 96
2019-04-12 03:00:00 5 0 Calma 6 Este 0 -- -- 94
2019-04-12 02:00:00 6 6 Este 12 Este 0 -- -- 92
2019-04-12 01:00:00 5.8 4 Nordeste 6 Norte 0 -- -- 97
2019-04-12 00:00:00 6.3 0 Calma 9 Norte 0.2 -- -- 93
2019-04-11 23:00:00 6.5 6 Norte 10 Norte 0.2 -- -- 94
2019-04-11 22:00:00 6.6 4 Nordeste 12 Nordeste 0 -- -- 94
2019-04-11 21:00:00 6.8 9 Nordeste 21 Nordeste 0 -- -- 92
2019-04-11 20:00:00 7.7 18 Nordeste 24 Norte 0 -- -- 84
2019-04-11 19:00:00 8.9 16 Norte 25 Nordeste 0 -- -- 79
2019-04-11 18:00:00 8.9 15 Norte 25 Norte 0 -- -- 76
2019-04-11 17:00:00 9.4 18 Noroeste 27 Noroeste 0 -- -- 72
2019-04-11 16:00:00 9.6 10 Noroeste 26 Norte 0 -- -- 68
2019-04-11 15:00:00 9.6 12 Norte 24 Norte 0 -- -- 68
2019-04-11 14:00:00 9.3 11 Norte 20 Norte 0 -- -- 71
2019-04-11 13:00:00 8.1 12 Noroeste 21 Noroeste 0 -- -- 76
2019-04-11 12:00:00 8 11 Norte 23 Noroeste 0 -- -- 74
2019-04-11 11:00:00 7.8 13 Noroeste 22 Noroeste 0 -- -- 74
2019-04-11 10:00:00 6.5 5 Noroeste 10 Norte 0 -- -- 82
2019-04-11 09:00:00 5.4 3 Noroeste 8 Noroeste 0 -- -- 89
2019-04-11 08:00:00 3.8 5 Sudoeste 9 Sudoeste 0 -- -- 93
2019-04-11 07:00:00 3.7 5 Sur 9 Sur 0 -- -- 93
2019-04-11 06:00:00 3.9 5 Sur 9 Sur 0 -- -- 92
2019-04-11 05:00:00 3.5 0 Calma 6 Sudeste 0 -- -- 95
2019-04-11 04:00:00 2.7 2 Sudoeste 6 Sur 0 -- -- 96
2019-04-11 03:00:00 3.7 0 Calma 5 Sur 0 -- -- 94
2019-04-11 02:00:00 4.4 0 Calma 8 Sudoeste 0 -- -- 92
2019-04-11 01:00:00 3.8 2 Oeste 5 Este 0 -- -- 92
2019-04-11 00:00:00 3.3 0 Calma 8 Norte 0 -- -- 93
2019-04-10 23:00:00 4.2 3 Noroeste 14 Norte 0 -- -- 91
2019-04-10 22:00:00 6.1 8 Norte 24 Norte 0 -- -- 84
2019-04-10 21:00:00 7.5 15 Norte 22 Nordeste 0 -- -- 77
2019-04-10 20:00:00 8.3 13 Nordeste 20 Nordeste 0 -- -- 77
2019-04-10 19:00:00 8.6 11 Nordeste 30 Este 0 -- -- 80
2019-04-10 18:00:00 9.8 20 Este 30 Nordeste 0 -- -- 74
2019-04-10 17:00:00 8.3 21 Este 44 Nordeste 0 -- -- 83
2019-04-10 16:00:00 10.4 12 Este 30 Nordeste 0 -- -- 66
2019-04-10 15:00:00 11.1 6 Norte 14 Norte 0 -- -- 58
2019-04-10 14:00:00 10.2 6 Este 14 Este 0.2 -- -- 64
2019-04-10 13:00:00 10.2 3 Sudoeste 10 Sudoeste 0 -- -- 64
2019-04-10 12:00:00 7.7 2 Sur 6 Norte 0 -- -- 83
2019-04-10 11:00:00 5.6 4 Norte 8 Sur 0 -- -- 92
2019-04-10 10:00:00 5 5 Sudoeste 12 Sudoeste 0 -- -- 91
2019-04-10 09:00:00 4.6 9 Sudoeste 14 Sudoeste 0 -- -- 94
2019-04-10 08:00:00 4 3 Sur 7 Sudoeste 0 -- -- 97
2019-04-10 07:00:00 3.2 2 Sur 7 Sudoeste 0 -- -- 95
2019-04-10 06:00:00 4 3 Sur 7 Sudoeste 0 -- -- 97
2019-04-10 05:00:00 3.8 4 Este 10 Norte 0 -- -- 98
2019-04-10 04:00:00 3.3 0 Calma 10 Sudoeste 0 -- -- 98
2019-04-10 03:00:00 3.4 6 Sudoeste 15 Sudoeste 0 -- -- 94
2019-04-10 02:00:00 4.1 9 Sudoeste 12 Sudoeste 0 -- -- 95
2019-04-10 01:00:00 4.5 0 Calma -- -- 0 -- -- 96
2019-04-10 00:00:00 4.6 0 Calma 6 Noroeste 0 -- -- 95
2019-04-09 23:00:00 5 4 Sur 21 Sudeste 0.2 -- -- 92
2019-04-09 22:00:00 5.4 13 Sudeste 22 Sudeste 0 -- -- 92
2019-04-09 21:00:00 5.1 7 Sudoeste 28 Norte 0 -- -- 92
2019-04-09 20:00:00 5.2 19 Nordeste 30 Nordeste 4 -- -- 94
2019-04-09 19:00:00 6.6 22 Norte 41 Oeste 1 -- -- 93
2019-04-09 18:00:00 10 14 Oeste 32 Oeste 0 -- -- 66
2019-04-09 17:00:00 10.7 18 Oeste 35 Oeste 0 -- -- 63
2019-04-09 16:00:00 10.6 23 Sudoeste 42 Sudoeste 0 -- -- 65
2019-04-09 15:00:00 10.2 24 Sudoeste 42 Sudoeste 0 -- -- 68
2019-04-09 14:00:00 10.1 20 Sudoeste 34 Sur 0 -- -- 68
2019-04-09 13:00:00 9.5 21 Sudoeste 37 Sudoeste 0 -- -- 72
2019-04-09 12:00:00 7.6 21 Sudoeste 33 Sudoeste 0 -- -- 83
2019-04-09 11:00:00 8.1 16 Sudoeste 38 Sudoeste 0 -- -- 75
2019-04-09 10:00:00 7.6 19 Sudoeste 33 Sudoeste 0 -- -- 79
2019-04-09 09:00:00 5.9 16 Sudoeste 27 Sudoeste 0 -- -- 85
2019-04-09 08:00:00 5.6 12 Sudoeste 24 Sudoeste 0 -- -- 86
2019-04-09 07:00:00 5.3 14 Sudoeste 29 Sudoeste 0 -- -- 87
2019-04-09 06:00:00 4.5 15 Sudoeste 32 Sudoeste 0 -- -- 89
2019-04-09 05:00:00 4.7 18 Sudoeste 26 Sudoeste 0 -- -- 88
2019-04-09 04:00:00 4.8 17 Sudoeste 24 Sudoeste 0 -- -- 86
2019-04-09 03:00:00 5.4 18 Sudoeste 31 Sudoeste 0 -- -- 83
2019-04-09 02:00:00 5.4 13 Sudoeste 23 Sudoeste 0 -- -- 82
2019-04-09 01:00:00 6 9 Sudoeste 18 Sur 0 -- -- 78
2019-04-09 00:00:00 7.2 9 Sudoeste 22 Oeste 0 -- -- 71
2019-04-08 23:00:00 7.7 10 Sur 18 Sudoeste 0 -- -- 68
2019-04-08 22:00:00 8.5 8 Sur 19 Sudoeste 0 -- -- 63
2019-04-08 21:00:00 10.4 12 Sudoeste 26 Oeste 0 -- -- 52
2019-04-08 20:00:00 12.8 14 Sudoeste 32 Oeste 0 -- -- 44
2019-04-08 19:00:00 14.1 19 Oeste 33 Sudoeste 0 -- -- 37
2019-04-08 18:00:00 14 21 Oeste 33 Oeste 0 -- -- 48
2019-04-08 17:00:00 14 18 Oeste 40 Oeste 0 -- -- 47
2019-04-08 16:00:00 13.7 29 Sudoeste 44 Sudoeste 0 -- -- 55
2019-04-08 15:00:00 11.4 32 Sudoeste 45 Sudoeste 0 -- -- 64
2019-04-08 14:00:00 13.1 15 Sudoeste 27 Sudoeste 0 -- -- 62
2019-04-08 13:00:00 10.7 9 Norte 28 Sudoeste 0 -- -- 79
2019-04-08 12:00:00 11.1 17 Sudoeste 27 Sudoeste 0 -- -- 80
2019-04-08 11:00:00 9.8 13 Oeste 28 Sudoeste 0.2 -- -- 83
2019-04-08 10:00:00 9.9 15 Sudoeste 26 Sudoeste 0 -- -- 87
2019-04-08 09:00:00 8.8 10 Sudoeste 26 Sudoeste 0 -- -- 93
2019-04-08 08:00:00 8.2 16 Sudoeste 24 Sudoeste 0 -- -- 94
2019-04-08 07:00:00 8.4 14 Sudoeste 28 Sudoeste 0 -- -- 91
2019-04-08 06:00:00 8.1 18 Sudoeste 28 Sudoeste 0 -- -- 92
2019-04-08 05:00:00 7.8 15 Sudoeste 30 Sudoeste 0 -- -- 90
2019-04-08 04:00:00 7.4 15 Sudoeste 26 Sudoeste 0 -- -- 89
2019-04-08 03:00:00 7.3 8 Oeste 21 Sudoeste 0 -- -- 86
2019-04-08 02:00:00 6.2 4 Noroeste 12 Nordeste 0 -- -- 89
2019-04-08 01:00:00 6.1 8 Sudoeste 19 Sudoeste 0 -- -- 85
2019-04-08 00:00:00 6.1 10 Sudoeste 23 Oeste 0 -- -- 85
2019-04-07 23:00:00 6.1 17 Sudoeste 32 Sudoeste 0 -- -- 87
2019-04-07 22:00:00 6.9 15 Sudoeste 38 Sudoeste 0 -- -- 81
2019-04-07 21:00:00 8.2 22 Sudoeste 40 Sudoeste 0 -- -- 69
2019-04-07 20:00:00 10.6 18 Sudoeste 35 Sudoeste 0 -- -- 47
2019-04-07 19:00:00 11.1 16 Sudoeste 32 Sudoeste 0 -- -- 42
2019-04-07 18:00:00 11.8 22 Sudoeste 37 Sudoeste 0 -- -- 48
2019-04-07 17:00:00 11.3 19 Oeste 30 Sudoeste 0 -- -- 49
2019-04-07 16:00:00 10.9 20 Sudoeste 36 Sudoeste 0 -- -- 50
2019-04-07 15:00:00 10.5 19 Sudoeste 31 Sudoeste 0.2 -- -- 57
2019-04-07 14:00:00 9.8 21 Sudoeste 33 Sudoeste 0 -- -- 58
2019-04-07 13:00:00 8.7 19 Sudoeste 34 Sudoeste 0 -- -- 67
2019-04-07 12:00:00 6.3 12 Sudoeste 25 Oeste 0 -- -- 79
2019-04-07 11:00:00 4.2 14 Sudoeste 27 Sudoeste 0 -- -- 84
2019-04-07 10:00:00 3.4 17 Sudoeste 28 Sudoeste 0 -- -- 86
2019-04-07 09:00:00 3 6 Sudoeste 32 Sudoeste 0 -- -- 87
2019-04-07 08:00:00 2.7 17 Sudoeste 27 Sudoeste 0 -- -- 88
2019-04-07 07:00:00 2.8 17 Sudoeste 24 Sudoeste 0 -- -- 89
2019-04-07 06:00:00 2.9 9 Sudoeste 23 Sudoeste 0 -- -- 89
2019-04-07 05:00:00 3 16 Sudoeste 26 Sudoeste 0 -- -- 87
2019-04-07 04:00:00 3.1 16 Sudoeste 24 Sudoeste 0 -- -- 87
2019-04-07 03:00:00 3.4 11 Sudoeste 19 Sudoeste 0 -- -- 87
2019-04-07 02:00:00 3.8 10 Sudoeste 14 Sudoeste 0 -- -- 94
2019-04-07 01:00:00 3.5 5 Sudeste 6 Sudeste 0 -- -- 92
2019-04-07 00:00:00 3.3 4 Noroeste 20 Oeste 0.6 -- -- 94
2019-04-06 23:00:00 3.9 10 Oeste 18 Oeste 0 -- -- 91
2019-04-06 22:00:00 3.4 9 Sudoeste 28 Sudoeste 0.6 -- -- 92
2019-04-06 21:00:00 5.5 12 Sudoeste 25 Sudoeste 0 -- -- 80
2019-04-06 20:00:00 6.2 17 Sudoeste 29 Sudoeste 0 -- -- 76
2019-04-06 19:00:00 5.8 14 Sudoeste 49 Oeste 0 -- -- 82
2019-04-06 18:00:00 10.5 23 Oeste 43 Oeste 0 -- -- 54
2019-04-06 17:00:00 9.7 27 Sudoeste 55 Oeste 0 -- -- 67
2019-04-06 16:00:00 8.5 28 Sudoeste 55 Oeste 0.2 -- -- 70
2019-04-06 15:00:00 6 19 Sudoeste 48 Sudoeste 0.4 -- -- 89
2019-04-06 14:00:00 7 26 Sudoeste 46 Sudoeste 0 -- -- 72
2019-04-06 13:00:00 5.9 30 Sudoeste 54 Sudoeste 0 -- -- 83
2019-04-06 12:00:00 5.9 20 Sudoeste 38 Sudoeste 0 -- -- 80
2019-04-06 11:00:00 5 25 Sudoeste 42 Sudoeste 0 -- -- 81
2019-04-06 10:00:00 5.1 26 Sudoeste 42 Sudoeste 0 -- -- 79
2019-04-06 09:00:00 3.8 14 Sudoeste 32 Sudoeste 0 -- -- 84
2019-04-06 08:00:00 3.7 16 Sudoeste 31 Oeste 0 -- -- 84
2019-04-06 07:00:00 3.7 13 Sudoeste 31 Oeste 0 -- -- 86
2019-04-06 06:00:00 3.8 16 Sudoeste 29 Sudoeste 0 -- -- 86
2019-04-06 05:00:00 4 15 Sudoeste 23 Sudoeste 0 -- -- 85
2019-04-06 04:00:00 3.8 7 Sudoeste 19 Sudoeste 0 -- -- 85
2019-04-06 03:00:00 3.6 11 Sudoeste 22 Sudoeste 0 -- -- 87
2019-04-06 02:00:00 3.4 10 Sudoeste 30 Sudoeste 0 -- -- 87
2019-04-06 01:00:00 2.8 6 Oeste 21 Sudoeste 0 -- -- 87
2019-04-06 00:00:00 2.6 0 Calma 21 Oeste 0 -- -- 86
2019-04-05 23:00:00 3.2 8 Sudoeste 16 Oeste 0 -- -- 81
2019-04-05 22:00:00 3.5 9 Sudoeste 26 Sudoeste 0 -- -- 79
2019-04-05 21:00:00 3.8 10 Sudoeste 28 Sudoeste 0 -- -- 82
2019-04-05 20:00:00 6 19 Sudoeste 27 Sudoeste 0 -- -- 73
2019-04-05 19:00:00 5.7 16 Sudoeste 27 Sudoeste 0 -- -- 75
2019-04-05 18:00:00 6.9 15 Sudoeste 27 Sudoeste 0 -- -- 72
2019-04-05 17:00:00 6.4 18 Sudoeste 35 Sur 0 -- -- 74
2019-04-05 16:00:00 7.6 18 Sudoeste 32 Sudoeste 0 -- -- 68
2019-04-05 15:00:00 6.7 17 Sudoeste 36 Sudoeste 0 -- -- 76
2019-04-05 14:00:00 7.1 14 Sudoeste 32 Sudoeste 0 -- -- 70
2019-04-05 13:00:00 7.2 19 Sudoeste 35 Sudoeste 0 -- -- 74
2019-04-05 12:00:00 6.5 25 Sudoeste 39 Sudoeste 0 -- -- 78
2019-04-05 11:00:00 6.9 13 Sudoeste 21 Sudoeste 0 -- -- 77
2019-04-05 10:00:00 5.7 9 Sudoeste 25 Sudoeste 0 -- -- 82
2019-04-05 09:00:00 5.3 8 Sudoeste 31 Sudoeste 0 -- -- 84
2019-04-05 08:00:00 5.2 13 Sudoeste 28 Sudoeste 0 -- -- 83
2019-04-05 07:00:00 4.9 19 Sudoeste 31 Sudoeste 0 -- -- 84
2019-04-05 06:00:00 3.9 5 Sur 11 Sur 0.2 -- -- 89
2019-04-05 05:00:00 4 3 Sudoeste 14 Sudoeste 0 -- -- 87
2019-04-05 04:00:00 4.1 8 Sudoeste 17 Sudoeste 0 -- -- 87
2019-04-05 03:00:00 3.7 4 Sur 13 Sur 0 -- -- 89
2019-04-05 02:00:00 3.4 4 Sudoeste 12 Sudoeste 0 -- -- 91
2019-04-05 01:00:00 3.2 5 Sudoeste 18 Sudoeste 0 -- -- 92
2019-04-05 00:00:00 3.6 11 Sudoeste 27 Sudoeste 0 -- -- 91
2019-04-04 23:00:00 4.2 18 Sudoeste 28 Sudoeste 0 -- -- 85
2019-04-04 22:00:00 5.5 21 Oeste 36 Oeste 0 -- -- 69
2019-04-04 21:00:00 7.8 23 Sudoeste 42 Sudoeste 0 -- -- 54
2019-04-04 20:00:00 9.6 25 Sudoeste 40 Sudoeste 0 -- -- 38
2019-04-04 19:00:00 10 25 Sudoeste 39 Sudoeste 0 -- -- 35
2019-04-04 18:00:00 10.3 26 Sudoeste 46 Sudoeste 0 -- -- 36
2019-04-04 17:00:00 11.3 28 Sudoeste 55 Sudoeste 0 -- -- 34
2019-04-04 16:00:00 10.6 32 Sudoeste 51 Sudoeste 0 -- -- 36
2019-04-04 15:00:00 9.8 25 Sudoeste 42 Sudoeste 0 -- -- 41
2019-04-04 14:00:00 8.4 26 Sudoeste 41 Sudoeste 0 -- -- 46
2019-04-04 13:00:00 7.6 27 Sudoeste 40 Sudoeste 0 -- -- 54
2019-04-04 12:00:00 6.1 21 Oeste 36 Oeste 0 -- -- 59
2019-04-04 11:00:00 4.6 12 Sudoeste 26 Sudoeste 0 -- -- 66
2019-04-04 10:00:00 2.1 7 Oeste 23 Sur 0 -- -- 72
2019-04-04 09:00:00 -0.4 15 Sudoeste 23 Sudoeste 0 -- -- 79
2019-04-04 08:00:00 -1.4 14 Sudoeste 22 Sudoeste 0 -- -- 81
2019-04-04 07:00:00 -1.8 12 Sudoeste 18 Sur 0 -- -- 84
2019-04-04 06:00:00 -1.8 5 Sur 17 Sudoeste 0 -- -- 84
2019-04-04 05:00:00 -1.6 6 Sur 12 Sur 0 -- -- 84
2019-04-04 04:00:00 -1.3 2 Sur 10 Sur 0 -- -- 82
2019-04-04 03:00:00 -0.6 4 Sudoeste 17 Sudoeste 0 -- -- 81
2019-04-04 02:00:00 0.2 5 Sur 12 Noroeste 0 -- -- 80
2019-04-04 01:00:00 1.2 6 Noroeste 24 Norte 0 -- -- 79
2019-04-04 00:00:00 2.1 11 Noroeste 23 Noroeste 0 -- -- 68
2019-04-03 23:00:00 1.5 5 Norte 15 Noroeste 0 -- -- 70
2019-04-03 22:00:00 1.7 2 Sudeste 13 Noroeste 0 -- -- 72
2019-04-03 21:00:00 3 8 Norte 33 Noroeste 0 -- -- 62
2019-04-03 20:00:00 4.2 21 Noroeste 38 Norte 0 -- -- 61
2019-04-03 19:00:00 4.7 22 Norte 38 Norte 0 -- -- 66
2019-04-03 18:00:00 7 22 Norte 48 Noroeste 0 -- -- 53
2019-04-03 17:00:00 6.9 16 Noroeste 40 Noroeste 0 -- -- 60
2019-04-03 16:00:00 6.6 15 Noroeste 40 Noroeste 2.8 -- -- 70
2019-04-03 15:00:00 3 21 Noroeste 40 Noroeste 1.6 -- -- 83
2019-04-03 14:00:00 7.5 13 Norte 31 Noroeste 0 -- -- 56
2019-04-03 13:00:00 6.7 22 Norte 36 Norte 0 -- -- 60
2019-04-03 12:00:00 5.3 18 Norte 29 Noroeste 0 -- -- 78
2019-04-03 11:00:00 5.9 13 Noroeste 18 Norte 0 -- -- 72
2019-04-03 10:00:00 4.9 7 Noroeste 15 Norte 0 -- -- 82
2019-04-03 09:00:00 4.6 9 Noroeste 17 Noroeste 0 -- -- 83
2019-04-03 08:00:00 4.9 10 Noroeste 19 Noroeste 0 -- -- 78
2019-04-03 07:00:00 5.1 9 Noroeste 17 Noroeste 0 -- -- 79
2019-04-03 06:00:00 5.5 9 Noroeste 16 Noroeste 0 -- -- 80
2019-04-03 05:00:00 5.9 8 Noroeste 15 Noroeste 0 -- -- 82
2019-04-03 04:00:00 6.4 6 Noroeste 12 Noroeste 0 -- -- 80
2019-04-03 03:00:00 6.7 0 Calma 10 Nordeste 0 -- -- 89
2019-04-03 02:00:00 7.2 0 Calma 8 Este 0 -- -- 88
2019-04-03 01:00:00 7.6 6 Este 13 Este 0 -- -- 87
2019-04-03 00:00:00 8.1 8 Este 15 Este 0 -- -- 82
2019-04-02 23:00:00 8.2 13 Este 17 Este 0 -- -- 81
2019-04-02 22:00:00 8.7 10 Este 17 Este 0 -- -- 77
2019-04-02 21:00:00 9.3 10 Nordeste 29 Nordeste 0 -- -- 74
2019-04-02 20:00:00 10.9 18 Nordeste 27 Nordeste 0 -- -- 72
2019-04-02 19:00:00 13.6 21 Nordeste 30 Nordeste 0 -- -- 61
2019-04-02 18:00:00 15.9 7 Este 16 Nordeste 0 -- -- 46
2019-04-02 17:00:00 14.9 5 Norte 18 Norte 0 -- -- 44
2019-04-02 16:00:00 15.1 10 Norte 21 Este 0 -- -- 44
2019-04-02 15:00:00 14.8 4 Norte 17 Este 0 -- -- 42
2019-04-02 14:00:00 14.2 9 Nordeste 19 Este 0 -- -- 49
2019-04-02 13:00:00 12.4 8 Nordeste 17 Nordeste 0 -- -- 53
2019-04-02 12:00:00 12 8 Nordeste 14 Norte 0 -- -- 56
2019-04-02 11:00:00 10.2 2 Noroeste 8 Norte 0 -- -- 77
2019-04-02 10:00:00 7.5 5 Sur 13 Sur 0 -- -- 87
2019-04-02 09:00:00 4 3 Sur 13 Sur 0 -- -- 94
2019-04-02 08:00:00 2.7 7 Sur 15 Sur 0 -- -- 95
2019-04-02 07:00:00 3.3 4 Sur 15 Sudeste 0 -- -- 96
2019-04-02 06:00:00 3.5 6 Sur 15 Sur 0 -- -- 96
2019-04-02 05:00:00 4.2 7 Sur 13 Sur 0 -- -- 95
2019-04-02 04:00:00 4.5 8 Sur 15 Sur 0 -- -- 93
2019-04-02 03:00:00 5.3 8 Sur 12 Sudeste 0 -- -- 93
2019-04-02 02:00:00 5.5 3 Sur 8 Noroeste 0 -- -- 93
2019-04-02 01:00:00 5.3 4 Sudoeste 8 Oeste 0 -- -- 93
2019-04-02 00:00:00 5.9 0 Calma 8 Sudoeste 0 -- -- 89
2019-04-01 23:00:00 7.4 4 Sudoeste 13 Sudeste 0 -- -- 87
2019-04-01 22:00:00 9 12 Sudeste 16 Sudeste 0 -- -- 81
2019-04-01 21:00:00 10.3 8 Sudeste 15 Este 0 -- -- 75
2019-04-01 20:00:00 12.2 10 Sudeste 17 Este 0 -- -- 71
2019-04-01 19:00:00 13.2 12 Este 18 Este 0 -- -- 62
2019-04-01 18:00:00 12.9 8 Este 17 Este 0 -- -- 64
2019-04-01 17:00:00 11.9 9 Sudeste 20 Sudeste 0 -- -- 70
2019-04-01 16:00:00 11.6 8 Sudeste 21 Este 0 -- -- 68
2019-04-01 15:00:00 12 12 Este 23 Este 0 -- -- 68
2019-04-01 14:00:00 11.1 11 Sudeste 18 Este 0 -- -- 69
2019-04-01 13:00:00 10.5 7 Sudeste 19 Este 0 -- -- 70
2019-04-01 12:00:00 9.8 5 Nordeste 13 Nordeste 0 -- -- 76
2019-04-01 11:00:00 8.6 3 Este 7 Este 0 -- -- 79
2019-04-01 10:00:00 7 3 Nordeste 5 Nordeste 0 -- -- 85
2019-04-01 09:00:00 6.3 4 Sudeste 7 Sudeste 0 -- -- 88
2019-04-01 08:00:00 6.2 0 Calma 9 Este 0 -- -- 89
2019-04-01 07:00:00 6.2 8 Este 10 Este 0 -- -- 89
2019-04-01 06:00:00 6.2 0 Calma 6 Sudeste 0 -- -- 85
2019-04-01 05:00:00 6.5 3 Sudeste 18 Sudeste 0 -- -- 82
2019-04-01 04:00:00 6.6 11 Este 42 Este 0 -- -- 82
2019-04-01 03:00:00 7.2 32 Este 46 Este 0 -- -- 77
2019-04-01 02:00:00 7.7 28 Este 49 Este 0 -- -- 76
2019-04-01 01:00:00 9.2 34 Este 50 Sudeste 0 -- -- 65
2019-04-01 00:00:00 9.6 26 Este 39 Este 0 -- -- 62
2019-03-31 23:00:00 9.8 16 Este 32 Este 0 -- -- 59
2019-03-31 22:00:00 10.2 17 Este 32 Este 0 -- -- 52
2019-03-31 21:00:00 10.7 18 Este 37 Sudeste 0 -- -- 46
2019-03-31 20:00:00 12.3 22 Este 40 Sudeste 0 -- -- 52
2019-03-31 19:00:00 14.1 25 Este 37 Este 0 -- -- 40
2019-03-31 18:00:00 15.6 25 Este 41 Este 0 -- -- 38
2019-03-31 17:00:00 16 26 Este 41 Este 0 -- -- 34
2019-03-31 16:00:00 16.2 29 Este 42 Este 0 -- -- 38
2019-03-31 15:00:00 15.5 29 Este 40 Este 0 -- -- 39
2019-03-31 14:00:00 14.4 22 Este 36 Este 0 -- -- 46
2019-03-31 13:00:00 11.9 14 Este 22 Este 0 -- -- 63
2019-03-31 12:00:00 9.9 12 Este 22 Este 0 -- -- 69
2019-03-31 11:00:00 8.1 13 Este 26 Este 0 -- -- 77
2019-03-31 10:00:00 4.6 2 Sudoeste 3 Sudoeste 0 -- -- 84
2019-03-31 09:00:00 0.9 0 Calma 4 Oeste 0 -- -- 89
2019-03-31 08:00:00 -0.6 0 Calma 3 Oeste 0 -- -- 88
2019-03-31 07:00:00 0.7 0 Calma 4 Sudoeste 0 -- -- 84
2019-03-31 06:00:00 1.3 0 Calma 4 Sudoeste 0 -- -- 80
2019-03-31 05:00:00 3.6 0 Calma 12 Nordeste 0 -- -- 69
2019-03-31 03:00:00 6.7 3 Nordeste 18 Sudeste 0 -- -- 58
2019-03-31 01:00:00 6.9 3 Oeste 18 Este 0 -- -- 53
2019-03-31 00:00:00 8.6 5 Este 19 Este 0 -- -- 48
2019-03-30 23:00:00 10.4 14 Este 21 Este 0 -- -- 43
2019-03-30 22:00:00 10.7 13 Este 21 Este 0 -- -- 44
2019-03-30 21:00:00 11 13 Este 21 Este 0 -- -- 46
2019-03-30 20:00:00 12.3 13 Este 29 Este 0 -- -- 44
2019-03-30 19:00:00 14.7 19 Este 30 Sudeste 0 -- -- 40
2019-03-30 18:00:00 16.2 20 Sudeste 31 Sudeste 0 -- -- 39
2019-03-30 17:00:00 17 16 Este 36 Este 0 -- -- 35
2019-03-30 16:00:00 16.7 16 Este 27 Este 0 -- -- 37
2019-03-30 15:00:00 16.2 15 Sudeste 29 Este 0 -- -- 42
2019-03-30 14:00:00 15.1 16 Este 27 Este 0 -- -- 50
2019-03-30 13:00:00 13.7 17 Sudeste 27 Este 0 -- -- 53
2019-03-30 12:00:00 11.8 12 Este 21 Este 0 -- -- 59
2019-03-30 11:00:00 9.8 7 Sudeste 18 Este 0 -- -- 64
2019-03-30 10:00:00 7.6 12 Este 17 Sudeste 0 -- -- 68
2019-03-30 09:00:00 5.8 7 Sudeste 15 Este 0 -- -- 74
2019-03-30 08:00:00 1.6 5 Sudoeste 10 Sudoeste 0 -- -- 87
2019-03-30 07:00:00 2 9 Sudoeste 16 Sur 0 -- -- 83
2019-03-30 06:00:00 2.7 5 Sudoeste 13 Sudoeste 0 -- -- 84
2019-03-30 05:00:00 3.5 4 Sudoeste 13 Sur 0 -- -- 81
2019-03-30 04:00:00 4.9 5 Sur 19 Sudeste 0 -- -- 76
2019-03-30 03:00:00 3.3 3 Sudoeste 17 Sur 0 -- -- 75
2019-03-30 02:00:00 6.3 11 Sur 23 Sudeste 0 -- -- 66
2019-03-30 01:00:00 6.7 13 Sudeste 24 Sudeste 0 -- -- 67
2019-03-30 00:00:00 5.8 3 Sur 10 Sudeste 0 -- -- 61
2019-03-29 23:00:00 8.1 5 Sudoeste 26 Este 0 -- -- 54
2019-03-29 22:00:00 9.2 6 Sudeste 24 Este 0 -- -- 49
2019-03-29 21:00:00 11.2 19 Este 28 Sudeste 0 -- -- 44
2019-03-29 20:00:00 13 18 Este 29 Este 0 -- -- 40
2019-03-29 19:00:00 15.1 17 Este 30 Este 0 -- -- 37
2019-03-29 18:00:00 16.7 19 Este 30 Este 0 -- -- 37
2019-03-29 17:00:00 17.2 17 Este 33 Este 0 -- -- 36
2019-03-29 16:00:00 17 19 Este 30 Este 0 -- -- 37
2019-03-29 15:00:00 16.6 18 Este 33 Este 0 -- -- 39
2019-03-29 14:00:00 15.3 16 Este 29 Sudeste 0 -- -- 42
2019-03-29 13:00:00 13.7 15 Este 29 Este 0 -- -- 48
2019-03-29 12:00:00 11.7 10 Este 23 Este 0 -- -- 53
2019-03-29 11:00:00 9.8 9 Este 19 Sudeste 0 -- -- 63
2019-03-29 10:00:00 7.9 8 Este 16 Nordeste 0 -- -- 67
2019-03-29 09:00:00 4 3 Sudoeste 8 Oeste 0 -- -- 78
2019-03-29 08:00:00 0.2 3 Sudoeste 10 Sudoeste 0 -- -- 89
2019-03-29 07:00:00 -0.8 4 Sudoeste 9 Sur 0 -- -- 90
2019-03-29 06:00:00 -0.6 4 Sudoeste 12 Sur 0 -- -- 90
2019-03-29 05:00:00 0.3 3 Sudoeste 14 Sudoeste 0 -- -- 87
2019-03-29 04:00:00 0.9 4 Sur 8 Sudoeste 0 -- -- 87
2019-03-29 03:00:00 1.1 2 Sudoeste 12 Sur 0 -- -- 84
2019-03-29 02:00:00 1 5 Sudoeste 10 Sudoeste 0 -- -- 86
2019-03-29 01:00:00 2.1 5 Oeste 14 Sudeste 0 -- -- 82
2019-03-29 00:00:00 4.4 10 Sur 17 Sur 0 -- -- 76
2019-03-28 23:00:00 3.9 2 Sur 9 Este 0 -- -- 73
2019-03-28 22:00:00 6.6 2 Sur 11 Sudeste 0 -- -- 67
2019-03-28 21:00:00 7.1 9 Nordeste 20 Este 0 -- -- 67
2019-03-28 20:00:00 10 13 Este 23 Este 0 -- -- 60
2019-03-28 19:00:00 12.4 15 Este 25 Este 0 -- -- 56
2019-03-28 18:00:00 13.9 17 Nordeste 27 Nordeste 0 -- -- 52
2019-03-28 17:00:00 14.7 15 Nordeste 30 Este 0 -- -- 48
2019-03-28 16:00:00 14.8 19 Este 33 Este 0 -- -- 49
2019-03-28 15:00:00 14.7 18 Este 28 Este 0 -- -- 43
2019-03-28 14:00:00 14.2 15 Nordeste 29 Este 0 -- -- 47
2019-03-28 13:00:00 12.7 17 Este 29 Este 0 -- -- 46
2019-03-28 12:00:00 11.4 16 Este 30 Este 0 -- -- 53
2019-03-28 11:00:00 9.6 14 Nordeste 25 Nordeste 0 -- -- 64
2019-03-28 10:00:00 7 6 Norte 10 Norte 0 -- -- 74
2019-03-28 09:00:00 3.2 0 Calma 3 Noroeste 0 -- -- 84
2019-03-28 08:00:00 -0.9 0 Calma 4 Este 0 -- -- 92
2019-03-28 07:00:00 -0.3 0 Calma 3 Sur 0 -- -- 85
2019-03-28 06:00:00 1.4 0 Calma 5 Sudoeste 0 -- -- 83
2019-03-28 05:00:00 1.4 4 Sudoeste 6 Sudoeste 0 -- -- 85
2019-03-28 04:00:00 -0.3 0 Calma 6 Sur 0 -- -- 90
2019-03-28 03:00:00 -0.8 0 Calma 4 Sudoeste 0 -- -- 80
2019-03-28 02:00:00 0 0 Calma 5 Este 0 -- -- 72
2019-03-28 01:00:00 1.3 4 Sudeste 14 Sudeste 0 -- -- 63
2019-03-28 00:00:00 2.2 5 Este 18 Nordeste 0 -- -- 50
2019-03-27 23:00:00 3.5 14 Este 19 Este 0 -- -- 41
2019-03-27 22:00:00 4.5 10 Nordeste 19 Nordeste 0 -- -- 34
2019-03-27 21:00:00 5.1 11 Nordeste 19 Nordeste 0 -- -- 44
2019-03-27 20:00:00 6.9 5 Nordeste 20 Norte 0 -- -- 38
2019-03-27 19:00:00 10.7 18 Nordeste 27 Norte 0 -- -- 34
2019-03-27 18:00:00 13.4 17 Nordeste 38 Noroeste 0 -- -- 35
2019-03-27 17:00:00 14.4 25 Nordeste 39 Nordeste 0 -- -- 31
2019-03-27 16:00:00 15.1 24 Nordeste 35 Nordeste 0 -- -- 26
2019-03-27 15:00:00 15.8 19 Este 33 Este 0 -- -- 27
2019-03-27 14:00:00 14.4 19 Este 34 Nordeste 0 -- -- 27
2019-03-27 13:00:00 13.7 21 Nordeste 35 Este 0 -- -- 26
2019-03-27 12:00:00 12.4 10 Nordeste 23 Nordeste 0 -- -- 34
2019-03-27 11:00:00 11 10 Nordeste 21 Nordeste 0 -- -- 34
2019-03-27 10:00:00 8.6 5 Nordeste 11 Nordeste 0 -- -- 47
2019-03-27 09:00:00 6.1 3 Sudeste 10 Sudoeste 0 -- -- 60
2019-03-27 08:00:00 0.8 3 Sudoeste 8 Sur 0 -- -- 89
2019-03-27 07:00:00 -0.4 0 Calma 10 Este 0 -- -- 85
2019-03-27 06:00:00 1.7 5 Este 10 Este 0 -- -- 78
2019-03-27 05:00:00 1.8 4 Sur 18 Sudeste 0 -- -- 83
2019-03-27 04:00:00 2.9 14 Sudeste 26 Sudeste 0 -- -- 82
2019-03-27 03:00:00 2.9 10 Este 25 Este 0 -- -- 81
2019-03-27 02:00:00 4.3 21 Este 28 Este 0 -- -- 73
2019-03-27 01:00:00 4.4 14 Este 22 Este 0 -- -- 74
2019-03-27 00:00:00 5.1 13 Este 40 Nordeste 0 -- -- 66
2019-03-26 23:00:00 5.4 7 Nordeste 32 Nordeste 0 -- -- 56
2019-03-26 22:00:00 4.3 8 Sudeste 16 Nordeste 0 -- -- 56
2019-03-26 21:00:00 5.4 10 Este 31 Nordeste 0 -- -- 49
2019-03-26 20:00:00 7.1 21 Nordeste 34 Nordeste 0 -- -- 37
2019-03-26 19:00:00 9.7 24 Nordeste 45 Nordeste 0 -- -- 29
2019-03-26 18:00:00 12 27 Nordeste 44 Nordeste 0 -- -- 23
2019-03-26 17:00:00 13.3 32 Nordeste 48 Nordeste 0 -- -- 23
2019-03-26 16:00:00 13.9 30 Nordeste 43 Nordeste 0 -- -- 24
2019-03-26 15:00:00 14.3 28 Nordeste 46 Nordeste 0 -- -- 24
2019-03-26 14:00:00 13.4 30 Nordeste 41 Este 0 -- -- 24
2019-03-26 13:00:00 11.7 24 Nordeste 41 Nordeste 0 -- -- 32
2019-03-26 12:00:00 10.2 16 Nordeste 32 Este 0 -- -- 43
2019-03-26 11:00:00 8.1 22 Nordeste 32 Nordeste 0 -- -- 49
2019-03-26 10:00:00 7 24 Nordeste 33 Nordeste 0 -- -- 49
2019-03-26 09:00:00 5.2 14 Este 22 Este 0 -- -- 64
2019-03-26 08:00:00 3 9 Este 17 Nordeste 0 -- -- 77
2019-03-26 07:00:00 2.3 14 Este 27 Este 0 -- -- 81
2019-03-26 06:00:00 3.3 13 Nordeste 22 Nordeste 0 -- -- 77
2019-03-26 05:00:00 4 17 Nordeste 24 Nordeste 0 -- -- 77
2019-03-26 04:00:00 4.6 7 Nordeste 14 Nordeste 0 -- -- 79
2019-03-26 03:00:00 4.5 4 Este 7 Este 0 -- -- 79
2019-03-26 02:00:00 4.1 0 Calma 5 Nordeste 0 -- -- 79
2019-03-26 01:00:00 3.4 0 Calma 13 Nordeste 0 -- -- 80
2019-03-26 00:00:00 3.4 11 Nordeste 28 Este 0 -- -- 77
2019-03-25 23:00:00 2.8 14 Este 23 Nordeste 0 -- -- 78
2019-03-25 22:00:00 3.6 6 Nordeste 23 Nordeste 0 -- -- 73
2019-03-25 21:00:00 3.9 8 Nordeste 25 Nordeste 0 -- -- 73
2019-03-25 20:00:00 6.2 17 Nordeste 22 Nordeste 0 -- -- 64
2019-03-25 19:00:00 8.4 12 Norte 24 Norte 0 -- -- 59
2019-03-25 18:00:00 10.1 18 Nordeste 33 Norte 0 -- -- 57
2019-03-25 17:00:00 11.6 18 Nordeste 37 Nordeste 0 -- -- 51
2019-03-25 16:00:00 12.2 14 Norte 37 Este 0 -- -- 48
2019-03-25 15:00:00 12.2 22 Nordeste 35 Nordeste 0 -- -- 50
2019-03-25 14:00:00 11.7 16 Nordeste 38 Nordeste 0 -- -- 52
2019-03-25 13:00:00 9.7 18 Norte 27 Norte 0 -- -- 59
2019-03-25 12:00:00 8.9 17 Nordeste 25 Nordeste 0 -- -- 62
2019-03-25 11:00:00 8.5 15 Norte 22 Nordeste 0 -- -- 68
2019-03-25 10:00:00 7.7 14 Nordeste 19 Nordeste 0 -- -- 77
2019-03-25 09:00:00 6.3 0 Calma 6 Este 0 -- -- 86
2019-03-25 08:00:00 4.8 2 Nordeste 8 Oeste 0 -- -- 91
2019-03-25 07:00:00 3.1 0 Calma 9 Sudoeste 0 -- -- 92
2019-03-25 06:00:00 1.2 2 Oeste 7 Sudoeste 0 -- -- 94
2019-03-25 05:00:00 0.7 2 Nordeste 5 Este 0 -- -- 92
2019-03-25 04:00:00 0.2 0 Calma 5 Sudoeste 0 -- -- 91
2019-03-25 03:00:00 1.3 2 Sur 5 Sudoeste 0 -- -- 84
2019-03-25 02:00:00 2.6 2 Sudoeste 5 Oeste 0 -- -- 82
2019-03-25 01:00:00 3.2 0 Calma 6 Oeste 0 -- -- 79
2019-03-25 00:00:00 4.2 0 Calma 4 Oeste 0 -- -- 73